Time;durP1;ratioP1;P1;durP2;ratioP2;P2;SDS_P1;SDS_P2;PMS_P1;PMS_P2;Temp;Humidity;BMP_temperature;BMP_pressure;BME280_temperature;BME280_humidity;BME280_pressure;Samples;Min_cycle;Max_cycle;Signal;HPM_P1;HPM_P2
2022/01/22 00:00:35;;;;;;;4.05;2.90;;;;;;;8.20;48.38;98521.31;1837249;77;21145;-60
2022/01/22 00:03:02;;;;;;;4.70;2.98;;;;;;;8.21;48.37;98525.62;1845951;77;20971;-59
2022/01/22 00:05:28;;;;;;;4.90;2.50;;;;;;;8.20;48.37;98521.31;1838199;77;21093;-60
2022/01/22 00:07:55;;;;;;;4.78;2.77;;;;;;;8.20;48.37;98520.80;1830065;77;21002;-60
2022/01/22 00:10:23;;;;;;;4.67;3.00;;;;;;;8.22;48.36;98520.63;1828846;77;21098;-61
2022/01/22 00:15:18;;;;;;;4.10;2.90;;;;;;;8.21;48.36;98529.08;1836945;77;21029;-61
2022/01/22 00:17:45;;;;;;;4.75;2.92;;;;;;;8.21;48.34;98529.08;1831504;76;21037;-62
2022/01/22 00:20:13;;;;;;;4.50;2.75;;;;;;;8.20;48.33;98526.09;1835380;77;21088;-60
2022/01/22 00:22:39;;;;;;;4.15;2.67;;;;;;;8.22;48.34;98531.20;1838598;77;20993;-60
2022/01/22 00:25:08;;;;;;;3.58;2.72;;;;;;;8.21;48.31;98524.30;1840705;77;21498;-62
2022/01/22 00:27:37;;;;;;;3.43;2.53;;;;;;;8.22;48.34;98526.73;1832764;77;21018;-61
2022/01/22 00:30:05;;;;;;;4.10;2.33;;;;;;;8.23;48.34;98531.55;1840093;77;20969;-62
2022/01/22 00:32:34;;;;;;;3.90;2.70;;;;;;;8.22;48.33;98534.67;1854457;77;22375;-61
2022/01/22 00:35:01;;;;;;;5.15;3.05;;;;;;;8.22;48.31;98538.64;1849501;77;21016;-61
2022/01/22 00:37:27;;;;;;;3.67;2.65;;;;;;;8.22;48.31;98537.31;1844557;75;21437;-62
2022/01/22 00:39:53;;;;;;;4.37;2.75;;;;;;;8.22;48.33;98539.14;1851296;77;21013;-62
2022/01/22 00:42:21;;;;;;;3.85;2.70;;;;;;;8.23;48.32;98535.52;1849568;77;21061;-61
2022/01/22 00:44:51;;;;;;;3.92;2.60;;;;;;;8.22;48.33;98531.20;1845728;77;21013;-63
2022/01/22 00:47:18;;;;;;;4.22;2.83;;;;;;;8.22;48.33;98529.89;1837392;77;21571;-60
2022/01/22 00:49:45;;;;;;;3.60;2.58;;;;;;;8.23;48.33;98534.19;1847049;77;21112;-60
2022/01/22 00:52:11;;;;;;;4.05;2.80;;;;;;;8.22;48.31;98525.41;1838711;77;21973;-60
2022/01/22 00:54:38;;;;;;;4.33;2.60;;;;;;;8.22;48.33;98529.89;1830786;77;21071;-62
2022/01/22 00:57:06;;;;;;;4.53;2.98;;;;;;;8.22;48.30;98529.89;1844100;77;21002;-60
2022/01/22 00:59:32;;;;;;;4.08;2.77;;;;;;;8.22;48.31;98528.56;1848425;77;21060;-60
2022/01/22 01:01:59;;;;;;;3.72;2.37;;;;;;;8.22;48.31;98525.41;1851661;77;21783;-61
2022/01/22 01:04:27;;;;;;;3.08;2.47;;;;;;;8.23;48.33;98529.71;1854045;77;21041;-60
2022/01/22 01:06:54;;;;;;;3.58;2.33;;;;;;;8.22;48.33;98529.37;1843702;77;21100;-60
2022/01/22 01:09:21;;;;;;;3.15;2.70;;;;;;;8.23;48.32;98527.58;1841193;77;21649;-60
2022/01/22 01:11:52;;;;;;;5.58;2.95;;;;;;;8.23;48.32;98525.74;1846625;77;21060;-61
2022/01/22 01:14:27;;;;;;;3.98;2.62;;;;;;;8.23;48.34;98523.61;1829795;77;22952;-59
2022/01/22 01:17:46;;;;;;;4.42;2.67;;;;;;;8.20;48.32;98516.02;1830462;77;21481;-60
2022/01/22 01:33:10;;;;;;;3.75;2.25;;;;;;;8.21;48.34;98529.58;1832802;77;21021;-61
2022/01/22 01:35:30;;;;;;;3.10;2.40;;;;;;;8.20;48.37;98536.67;1828886;77;21120;-60
2022/01/22 01:38:00;;;;;;;3.40;2.52;;;;;;;8.20;48.38;98534.55;1832049;77;21561;-61
2022/01/22 01:40:28;;;;;;;3.95;2.17;;;;;;;8.19;48.36;98533.73;1769490;79;21060;-59
2022/01/22 01:45:26;;;;;;;3.05;2.20;;;;;;;8.20;48.38;98534.55;1769656;80;20984;-60
2022/01/22 01:47:56;;;;;;;3.65;2.33;;;;;;;8.19;48.39;98536.38;1840189;77;21057;-63
2022/01/22 01:50:22;;;;;;;2.83;2.20;;;;;;;8.19;48.39;98535.05;1841021;77;21013;-61
2022/01/22 01:53:07;;;;;;;3.65;2.35;;;;;;;8.20;48.39;98537.19;1838489;77;22368;-61
2022/01/22 01:55:34;;;;;;;3.17;2.05;;;;;;;8.20;48.39;98539.83;1831774;77;21671;-64
2022/01/22 01:57:50;;;;;;;3.55;2.00;;;;;;;8.20;48.40;98537.19;1826826;76;21623;-61
2022/01/22 02:00:23;;;;;;;4.00;2.72;;;;;;;8.20;48.39;98542.48;1841057;77;22095;-60
2022/01/22 02:02:53;;;;;;;2.67;1.98;;;;;;;8.19;48.38;98547.44;1836526;77;21081;-61
2022/01/22 02:05:22;;;;;;;3.75;2.65;;;;;;;8.20;48.39;98549.91;1835135;77;21102;-61
2022/01/22 02:07:52;;;;;;;2.67;2.15;;;;;;;8.19;48.39;98544.31;1833653;77;20975;-60
2022/01/22 02:10:23;;;;;;;3.65;2.33;;;;;;;8.20;48.37;98549.91;1842550;77;21005;-59
2022/01/22 02:26:08;;;;;;;3.50;2.50;;;;;;;8.18;48.38;98543.98;1842113;77;21018;-61
2022/01/22 02:28:37;;;;;;;4.10;1.92;;;;;;;8.17;48.38;98542.35;1837944;77;21581;-60
2022/01/22 02:31:14;;;;;;;3.08;1.77;;;;;;;8.18;48.39;98543.98;1840869;77;21145;-59
2022/01/22 02:36:33;;;;;;;2.55;1.90;;;;;;;8.17;48.29;98546.31;1836917;77;21315;-62
2022/01/22 02:41:25;;;;;;;3.37;2.30;;;;;;;8.17;48.40;98551.61;1838686;77;20998;-60
2022/01/22 02:43:53;;;;;;;3.70;2.25;;;;;;;8.17;48.40;98550.77;1833295;77;21122;-60
2022/01/22 02:46:24;;;;;;;3.72;1.75;;;;;;;8.16;48.40;98547.30;1836359;77;21013;-60
2022/01/22 02:48:54;;;;;;;3.30;2.10;;;;;;;8.17;48.41;98550.28;1838605;77;21086;-60
2022/01/22 02:51:22;;;;;;;2.65;1.95;;;;;;;8.17;48.41;98566.16;1824839;77;21541;-60
2022/01/22 02:53:50;;;;;;;4.10;2.12;;;;;;;8.17;48.40;98566.16;1840563;77;21477;-59
2022/01/22 02:56:17;;;;;;;3.65;2.20;;;;;;;8.18;48.40;98561.69;1835139;77;21076;-60
2022/01/22 02:58:44;;;;;;;3.00;2.10;;;;;;;8.18;48.39;98563.00;1834826;77;21050;-60
2022/01/22 03:01:15;;;;;;;2.17;1.82;;;;;;;8.18;48.39;98559.03;1821703;77;21030;-63
2022/01/22 03:03:39;;;;;;;2.87;1.98;;;;;;;8.17;48.39;98559.55;1842698;77;21481;-62
2022/01/22 03:06:07;;;;;;;2.33;1.67;;;;;;;8.18;48.38;98561.69;1839051;77;21045;-60
2022/01/22 03:08:35;;;;;;;3.42;2.12;;;;;;;8.19;48.38;98560.66;1830115;77;21025;-60
2022/01/22 03:11:06;;;;;;;3.42;2.25;;;;;;;8.19;48.38;98564.62;1834142;77;21131;-60
2022/01/22 03:16:46;;;;;;;2.25;1.70;;;;;;;8.18;48.38;98560.36;1774087;79;21041;-60
2022/01/22 03:18:57;;;;;;;2.85;2.05;;;;;;;8.19;48.39;98564.62;1776443;79;21069;-61
2022/01/22 03:29:30;;;;;;;2.50;1.80;;;;;;;8.18;48.39;98573.59;1766653;80;21081;-60
2022/01/22 03:31:48;;;;;;;2.80;2.22;;;;;;;8.17;48.38;98577.22;1763898;79;21046;-60
2022/01/22 03:34:14;;;;;;;2.98;2.02;;;;;;;8.17;48.40;98574.58;1850323;77;21477;-60
2022/01/22 03:36:41;;;;;;;2.87;1.70;;;;;;;8.17;48.40;98583.36;1803806;77;20970;-61
2022/01/22 03:39:09;;;;;;;2.72;1.90;;;;;;;8.17;48.39;98575.90;1836275;77;21030;-61
2022/01/22 03:41:35;;;;;;;2.87;2.00;;;;;;;8.17;48.40;98570.61;1839768;77;21045;-60
2022/01/22 03:44:05;;;;;;;2.50;1.82;;;;;;;8.17;48.39;98574.09;1834055;77;21068;-61
2022/01/22 03:46:33;;;;;;;3.22;2.08;;;;;;;8.19;48.37;98580.50;1823690;77;21090;-60
2022/01/22 03:48:59;;;;;;;3.05;1.85;;;;;;;8.18;48.38;98581.52;1817238;77;21573;-59
2022/01/22 03:51:26;;;;;;;2.72;1.82;;;;;;;8.18;48.38;98584.17;1834443;77;21706;-60
2022/01/22 03:53:52;;;;;;;2.60;1.98;;;;;;;8.18;48.38;98586.30;1853712;77;21001;-60
2022/01/22 03:56:20;;;;;;;2.10;1.65;;;;;;;8.19;48.36;98583.99;1831244;77;20986;-62
2022/01/22 03:58:52;;;;;;;2.75;1.95;;;;;;;8.19;48.37;98583.15;1853836;77;21757;-62
2022/01/22 04:04:23;;;;;;;2.75;1.65;;;;;;;8.18;48.36;98592.92;1840164;77;21056;-61
2022/01/22 04:09:18;;;;;;;3.25;1.80;;;;;;;8.19;48.36;98608.28;1830655;77;20998;-60
2022/01/22 04:11:45;;;;;;;3.27;1.80;;;;;;;8.18;48.38;98604.83;1830632;77;21139;-61
2022/01/22 04:14:21;;;;;;;2.22;1.80;;;;;;;8.18;48.37;98611.95;1832685;77;21053;-60
2022/01/22 04:16:58;;;;;;;2.65;1.65;;;;;;;8.18;48.37;98602.69;1838155;77;21096;-60
2022/01/22 04:24:51;;;;;;;2.72;1.80;;;;;;;8.19;48.36;98614.89;1843062;77;21063;-60
2022/01/22 04:27:23;;;;;;;2.25;1.70;;;;;;;8.17;48.33;98615.10;1855082;77;21584;-60
2022/01/22 04:29:48;;;;;;;2.35;1.70;;;;;;;8.17;48.35;98610.28;1845806;77;21037;-60
2022/01/22 04:32:15;;;;;;;2.90;1.60;;;;;;;8.17;48.35;98616.91;1816483;77;21478;-61
2022/01/22 04:34:42;;;;;;;2.50;1.62;;;;;;;8.16;48.37;98613.95;1749279;82;21038;-60
2022/01/22 04:37:09;;;;;;;2.58;1.80;;;;;;;8.16;48.38;98614.77;1822690;77;21787;-60
2022/01/22 04:39:36;;;;;;;2.60;1.57;;;;;;;8.16;48.35;98613.95;1819451;77;21045;-61
2022/01/22 04:42:03;;;;;;;1.95;1.62;;;;;;;8.17;48.35;98626.16;1836554;78;20982;-61
2022/01/22 04:44:36;;;;;;;2.35;1.70;;;;;;;8.15;48.35;98625.05;1826317;78;21508;-61
2022/01/22 04:47:17;;;;;;;2.33;1.75;;;;;;;8.17;48.33;98623.52;1819431;78;21489;-60
2022/01/22 04:55:01;;;;;;;2.30;1.52;;;;;;;8.16;48.33;98623.21;1823247;78;21053;-62
2022/01/22 04:57:33;;;;;;;2.65;1.80;;;;;;;8.15;48.35;98629.48;1833586;78;21005;-60
2022/01/22 04:59:59;;;;;;;2.00;1.52;;;;;;;8.14;48.35;98624.70;1820736;78;21001;-60
2022/01/22 05:02:26;;;;;;;2.45;1.67;;;;;;;8.14;48.35;98622.06;1814627;77;23284;-61
2022/01/22 05:05:08;;;;;;;2.12;1.72;;;;;;;8.13;48.34;98619.11;1820482;77;21599;-61
2022/01/22 05:07:48;;;;;;;2.12;1.75;;;;;;;8.14;48.34;98626.03;1786672;79;21024;-60
2022/01/22 05:10:21;;;;;;;2.70;1.70;;;;;;;8.13;48.34;98627.05;1766636;80;21025;-61
2022/01/22 05:12:47;;;;;;;2.05;1.47;;;;;;;8.13;48.34;98626.20;1820321;78;21330;-61
2022/01/22 05:15:16;;;;;;;2.65;1.52;;;;;;;8.14;48.35;98622.57;1817409;77;21176;-61
2022/01/22 05:17:45;;;;;;;2.37;1.50;;;;;;;8.13;48.34;98626.20;1824356;77;20981;-60
2022/01/22 05:20:24;;;;;;;2.42;1.95;;;;;;;8.13;48.34;98628.37;1810813;77;21010;-61
2022/01/22 05:22:58;;;;;;;2.85;2.20;;;;;;;8.13;48.35;98631.49;1814531;77;21044;-60
2022/01/22 05:25:30;;;;;;;2.33;1.80;;;;;;;8.13;48.34;98631.02;1790724;77;21034;-60
2022/01/22 05:36:55;;;;;;;3.20;2.17;;;;;;;8.12;48.31;98642.59;1770952;78;21012;-60
2022/01/22 05:38:44;;;;;;;2.45;1.90;;;;;;;8.10;48.35;98647.23;1806247;78;21502;-61
2022/01/22 05:41:11;;;;;;;2.05;1.32;;;;;;;8.11;48.32;98654.66;1815374;77;21059;-60
2022/01/22 05:43:39;;;;;;;3.45;1.85;;;;;;;8.10;48.33;98647.74;1819320;78;21031;-61
2022/01/22 05:46:05;;;;;;;2.75;1.65;;;;;;;8.09;48.35;98649.55;1814501;78;21500;-61
2022/01/22 05:48:31;;;;;;;1.72;1.32;;;;;;;8.09;48.32;98656.16;1786111;78;21045;-61
2022/01/22 05:51:01;;;;;;;2.52;1.60;;;;;;;8.10;48.33;98660.97;1810721;78;21087;-60
2022/01/22 05:53:41;;;;;;;2.05;1.60;;;;;;;8.10;48.31;98659.14;1793754;78;21870;-60
2022/01/22 06:01:29;;;;;;;1.87;1.40;;;;;;;8.10;48.29;98667.07;1808579;78;21016;-62
2022/01/22 06:03:57;;;;;;;2.15;1.45;;;;;;;8.10;48.31;98666.26;1801592;77;21509;-62
2022/01/22 06:06:23;;;;;;;2.37;1.60;;;;;;;8.10;48.29;98679.48;1797717;78;21245;-61
2022/01/22 06:08:53;;;;;;;2.92;1.92;;;;;;;8.10;48.30;98682.13;1792500;78;21075;-61
2022/01/22 06:11:23;;;;;;;2.75;2.00;;;;;;;8.10;48.31;98688.23;1812158;78;21079;-61
2022/01/22 06:13:48;;;;;;;2.15;1.77;;;;;;;8.10;48.28;98686.09;1803423;78;21052;-62
2022/01/22 06:16:18;;;;;;;2.25;1.40;;;;;;;8.10;48.25;98684.27;1799127;78;21074;-61
2022/01/22 06:19:03;;;;;;;2.15;1.50;;;;;;;8.11;48.28;98691.19;1811095;78;21768;-60
2022/01/22 06:21:30;;;;;;;2.08;1.40;;;;;;;8.11;48.27;98690.37;1800151;78;21040;-61
2022/01/22 06:23:57;;;;;;;1.85;1.55;;;;;;;8.10;48.27;98690.88;1810538;78;21013;-59
2022/01/22 06:26:23;;;;;;;2.65;1.90;;;;;;;8.10;48.27;98694.85;1788201;78;20999;-61
2022/01/22 06:28:50;;;;;;;2.98;1.92;;;;;;;8.11;48.25;98690.37;1801926;78;21092;-61
2022/01/22 06:31:18;;;;;;;2.12;1.45;;;;;;;8.11;48.23;98691.19;1803798;77;21119;-60
2022/01/22 06:33:46;;;;;;;2.42;1.52;;;;;;;8.12;48.23;98690.71;1813157;77;21144;-60
2022/01/22 06:36:13;;;;;;;2.15;1.50;;;;;;;8.13;48.23;98691.02;1804614;77;21075;-60
2022/01/22 06:38:40;;;;;;;2.10;1.72;;;;;;;8.13;48.23;98693.66;1814852;77;21021;-59
2022/01/22 06:44:19;;;;;;;2.95;1.60;;;;;;;8.14;48.20;98703.25;1755554;77;21137;-60
2022/01/22 06:46:49;;;;;;;2.65;1.95;;;;;;;8.14;48.21;98705.91;1826907;77;21007;-61
2022/01/22 06:49:34;;;;;;;2.77;1.77;;;;;;;8.14;48.19;98715.16;1817402;78;21017;-60
2022/01/22 06:52:06;;;;;;;2.22;1.57;;;;;;;8.14;48.20;98715.16;1787537;77;21501;-60
2022/01/22 06:54:32;;;;;;;2.42;1.57;;;;;;;8.14;48.18;98713.84;1788478;78;21029;-61
2022/01/22 06:56:59;;;;;;;3.02;1.50;;;;;;;8.14;48.19;98714.66;1787920;77;21198;-60
2022/01/22 06:59:28;;;;;;;2.25;1.60;;;;;;;8.11;48.17;98712.86;1823813;77;21017;-62
2022/01/22 07:01:54;;;;;;;2.60;1.62;;;;;;;8.16;48.17;98717.12;1782017;78;21537;-61
2022/01/22 07:04:23;;;;;;;3.25;1.60;;;;;;;8.16;48.16;98713.97;1820096;77;21064;-60
2022/01/22 07:07:00;;;;;;;2.42;1.60;;;;;;;8.17;48.15;98720.08;1779889;78;21136;-61
2022/01/22 07:09:27;;;;;;;2.00;1.52;;;;;;;8.18;48.14;98726.52;1823460;77;22647;-60
2022/01/22 07:11:53;;;;;;;2.40;1.80;;;;;;;8.18;48.13;98729.17;1821181;77;21037;-60
2022/01/22 07:14:20;;;;;;;2.75;1.65;;;;;;;8.19;48.12;98722.89;1812055;77;21065;-61
2022/01/22 07:16:48;;;;;;;2.30;1.57;;;;;;;8.20;48.36;98730.32;1773719;80;21129;-61
2022/01/22 07:19:22;;;;;;;3.00;1.67;;;;;;;8.21;48.44;98735.44;1741420;81;21023;-61
2022/01/22 07:22:06;;;;;;;2.60;1.70;;;;;;;8.22;48.44;98737.07;1751372;81;21148;-61
2022/01/22 07:24:30;;;;;;;3.12;2.05;;;;;;;8.24;48.44;98732.93;1760556;80;20966;-60
2022/01/22 07:26:57;;;;;;;2.58;1.52;;;;;;;8.24;48.42;98737.72;1777783;80;20978;-60
2022/01/22 07:29:25;;;;;;;2.33;1.50;;;;;;;8.26;48.42;98740.19;1778460;80;21041;-60
2022/01/22 07:31:53;;;;;;;2.22;1.77;;;;;;;8.27;48.38;98743.98;1773274;80;21021;-61
2022/01/22 07:34:20;;;;;;;2.77;1.50;;;;;;;8.28;48.37;98739.51;1792717;79;21218;-62
2022/01/22 07:36:47;;;;;;;2.92;1.82;;;;;;;8.29;48.32;98742.49;1792037;79;21521;-62
2022/01/22 07:39:15;;;;;;;2.47;1.80;;;;;;;8.31;48.29;98739.16;1757782;79;21084;-59
2022/01/22 07:41:43;;;;;;;2.80;1.72;;;;;;;8.31;48.25;98747.10;1767840;80;21003;-60
2022/01/22 07:44:26;;;;;;;4.22;2.52;;;;;;;8.33;48.23;98751.72;1762767;80;21017;-60
2022/01/22 07:46:54;;;;;;;3.50;2.12;;;;;;;8.33;48.20;98751.72;1807325;78;21144;-59
2022/01/22 07:49:23;;;;;;;3.12;2.00;;;;;;;8.34;48.17;98752.53;1772084;79;21113;-59
2022/01/22 07:51:54;;;;;;;3.25;2.15;;;;;;;8.37;48.19;98757.48;1833529;77;22298;-58
2022/01/22 07:54:24;;;;;;;3.22;2.08;;;;;;;8.37;48.15;98753.00;1835912;77;21026;-60
2022/01/22 07:56:50;;;;;;;3.12;1.98;;;;;;;8.38;48.13;98755.98;1835837;77;21073;-60
2022/01/22 07:59:17;;;;;;;2.72;1.62;;;;;;;8.39;48.09;98756.30;1829815;76;21101;-60
2022/01/22 08:01:53;;;;;;;3.25;1.95;;;;;;;8.41;48.07;98758.77;1845463;77;20993;-59
2022/01/22 08:04:23;;;;;;;3.17;2.30;;;;;;;8.41;48.04;98762.26;1828670;77;21071;-59
2022/01/22 08:07:06;;;;;;;3.30;2.10;;;;;;;8.44;48.03;98765.89;1831941;77;20998;-60
2022/01/22 08:09:37;;;;;;;2.02;1.70;;;;;;;8.44;47.99;98765.89;1791796;77;21340;-60
2022/01/22 08:12:14;;;;;;;3.45;2.10;;;;;;;8.48;47.96;98768.16;1843656;77;23283;-59
2022/01/22 08:14:41;;;;;;;4.47;2.52;;;;;;;8.49;47.96;98771.14;1845386;77;21089;-60
2022/01/22 08:17:08;;;;;;;4.12;1.80;;;;;;;8.51;47.92;98777.89;1831172;77;21486;-61
2022/01/22 08:19:36;;;;;;;2.83;2.02;;;;;;;8.53;47.90;98780.37;1820348;77;21481;-60
2022/01/22 08:22:05;;;;;;;2.52;2.08;;;;;;;8.55;47.89;98775.72;1838140;77;22041;-58
2022/01/22 08:24:52;;;;;;;2.87;1.98;;;;;;;8.57;47.87;98776.36;1822601;77;21764;-61
2022/01/22 08:27:33;;;;;;;2.60;2.10;;;;;;;8.59;47.84;98767.73;1818705;77;21026;-62
2022/01/22 08:29:46;;;;;;;2.67;1.80;;;;;;;8.62;47.79;98776.66;1823900;77;20994;-61
2022/01/22 08:37:27;;;;;;;3.08;2.00;;;;;;;8.71;47.75;98784.86;1835190;77;21586;-61
2022/01/22 08:39:55;;;;;;;3.92;2.10;;;;;;;8.74;47.71;98781.02;1829649;77;21034;-61
2022/01/22 08:42:24;;;;;;;3.05;2.20;;;;;;;8.76;47.66;98790.41;1820590;77;21010;-60
2022/01/22 08:46:03;;;;;;;2.58;1.90;;;;;;;8.82;47.64;98789.69;1861336;76;28241;-59
2022/01/22 08:48:30;;;;;;;2.95;1.92;;;;;;;8.80;47.57;98791.70;1794609;78;21074;-61
2022/01/22 08:50:58;;;;;;;3.30;2.05;;;;;;;8.84;47.54;98796.14;1794461;78;21068;-62
2022/01/22 08:53:25;;;;;;;3.60;2.17;;;;;;;8.86;47.53;98799.43;1793747;78;20972;-61
2022/01/22 08:55:53;;;;;;;2.58;1.92;;;;;;;8.88;47.52;98804.55;1793840;78;21267;-59
2022/01/22 08:58:19;;;;;;;3.40;2.10;;;;;;;8.89;47.49;98809.67;1799061;78;20957;-60
2022/01/22 09:00:59;;;;;;;4.37;2.17;;;;;;;8.91;47.47;98806.85;1811500;78;20997;-60
2022/01/22 09:03:31;;;;;;;3.70;1.98;;;;;;;8.92;47.44;98797.89;1821968;77;21203;-60
2022/01/22 09:06:08;;;;;;;3.70;2.27;;;;;;;8.93;47.41;98797.71;1731164;82;21020;-62
2022/01/22 09:08:49;;;;;;;2.80;1.80;;;;;;;8.96;47.42;98799.17;1809669;78;21000;-61
2022/01/22 09:11:18;;;;;;;2.67;1.83;;;;;;;8.98;47.39;98799.81;1794133;79;20990;-61
2022/01/22 09:13:56;;;;;;;2.98;1.92;;;;;;;9.00;47.37;98801.30;1793526;79;21628;-60
2022/01/22 09:16:25;;;;;;;2.90;2.08;;;;;;;9.03;47.35;98800.09;1794305;78;22091;-62
2022/01/22 09:18:54;;;;;;;3.17;2.10;;;;;;;9.04;47.37;98800.44;1794516;78;21037;-61
2022/01/22 09:21:20;;;;;;;3.75;1.98;;;;;;;9.07;47.33;98804.03;1776020;79;21111;-61
2022/01/22 09:23:47;;;;;;;2.50;2.00;;;;;;;9.10;47.33;98797.53;1794158;80;20992;-60
2022/01/22 09:26:19;;;;;;;2.40;1.80;;;;;;;9.12;47.28;98801.67;1794789;78;21024;-62
2022/01/22 09:28:47;;;;;;;3.00;2.05;;;;;;;9.16;47.26;98804.78;1816098;78;21239;-61
2022/01/22 09:31:14;;;;;;;2.45;1.90;;;;;;;9.18;47.24;98805.42;1826541;78;21018;-60
2022/01/22 09:33:43;;;;;;;3.35;2.17;;;;;;;9.20;47.23;98809.52;1811178;77;21088;-62
2022/01/22 09:36:12;;;;;;;2.98;2.20;;;;;;;9.22;47.20;98808.84;1794623;78;21029;-61
2022/01/22 09:38:58;;;;;;;3.25;2.15;;;;;;;9.24;47.20;98802.03;1825516;78;21002;-62
2022/01/22 09:41:29;;;;;;;4.28;2.10;;;;;;;9.25;47.17;98808.97;1770126;78;21123;-60
2022/01/22 09:43:57;;;;;;;2.60;1.90;;;;;;;9.28;47.18;98807.80;1822804;78;21064;-61
2022/01/22 09:46:36;;;;;;;3.00;2.40;;;;;;;9.29;47.15;98805.45;1720193;83;21084;-60
2022/01/22 09:49:05;;;;;;;3.22;2.15;;;;;;;9.30;47.15;98803.13;1784823;78;21520;-63
2022/01/22 09:51:44;;;;;;;3.37;2.20;;;;;;;9.32;47.13;98810.40;1782100;79;20966;-60
2022/01/22 09:54:29;;;;;;;3.87;2.27;;;;;;;9.34;47.12;98817.16;1783936;79;21048;-60
2022/01/22 09:57:09;;;;;;;4.10;2.62;;;;;;;9.38;47.08;98822.92;1760807;79;20987;-61
2022/01/22 09:59:46;;;;;;;2.40;1.82;;;;;;;9.40;47.08;98828.34;1774415;80;21534;-62
2022/01/22 10:02:23;;;;;;;2.85;2.02;;;;;;;9.43;47.07;98825.85;1808175;78;21062;-59
2022/01/22 10:04:52;;;;;;;2.87;2.02;;;;;;;9.45;47.04;98829.14;1782650;80;21022;-60
2022/01/22 10:07:36;;;;;;;3.37;2.17;;;;;;;9.48;47.01;98833.25;1784179;79;21063;-59
2022/01/22 10:10:14;;;;;;;3.20;2.15;;;;;;;9.51;47.00;98835.03;1813847;78;21014;-60
2022/01/22 10:12:49;;;;;;;3.30;2.35;;;;;;;9.57;46.96;98826.84;1787062;78;21057;-61
2022/01/22 10:15:32;;;;;;;2.58;2.05;;;;;;;9.59;46.93;98819.02;1769384;79;21501;-60
2022/01/22 10:17:58;;;;;;;3.12;2.25;;;;;;;9.65;46.88;98821.44;1789507;79;21043;-61
2022/01/22 10:20:38;;;;;;;3.35;2.12;;;;;;;9.73;46.81;98824.49;1790080;79;21117;-61
2022/01/22 10:23:19;;;;;;;3.62;2.47;;;;;;;9.78;46.78;98827.42;1782295;79;20990;-62
2022/01/22 10:25:55;;;;;;;2.55;2.00;;;;;;;9.85;46.68;98832.31;1782167;79;21027;-61
2022/01/22 10:28:26;;;;;;;3.00;1.90;;;;;;;9.90;46.64;98832.56;1787104;79;21073;-62
2022/01/22 10:30:52;;;;;;;3.25;2.00;;;;;;;9.96;46.55;98832.33;1799112;78;21021;-61
2022/01/22 10:33:30;;;;;;;3.40;2.12;;;;;;;9.99;46.51;98835.43;1782441;79;21084;-60
2022/01/22 10:36:19;;;;;;;3.17;2.25;;;;;;;10.03;46.47;98836.70;1720655;78;20979;-61
2022/01/22 10:39:25;;;;;;;3.40;2.25;;;;;;;10.06;46.41;98832.84;1782523;80;21010;-61
2022/01/22 10:41:52;;;;;;;3.58;2.47;;;;;;;10.08;46.39;98830.00;1788581;79;21505;-60
2022/01/22 10:44:40;;;;;;;2.25;1.82;;;;;;;10.08;46.36;98829.49;1815167;78;21037;-60
2022/01/22 10:47:06;;;;;;;4.55;2.15;;;;;;;10.08;46.36;98826.84;1780242;78;23002;-60
2022/01/22 10:49:32;;;;;;;3.50;2.40;;;;;;;10.08;46.36;98833.47;1762989;78;21025;-60
2022/01/22 10:52:03;;;;;;;2.67;2.10;;;;;;;10.07;46.37;98830.52;1823043;78;21061;-60
2022/01/22 10:54:33;;;;;;;2.98;2.10;;;;;;;10.07;46.37;98838.48;1826213;78;21097;-59
2022/01/22 10:57:15;;;;;;;3.17;1.95;;;;;;;10.08;46.36;98837.97;1819429;78;21040;-61
2022/01/22 10:59:47;;;;;;;2.60;2.10;;;;;;;10.07;46.37;98836.34;1799704;78;22728;-61
2022/01/22 11:02:14;;;;;;;3.42;2.17;;;;;;;10.07;46.37;98839.80;1805400;78;21497;-61
2022/01/22 11:04:42;;;;;;;2.35;2.05;;;;;;;10.07;46.35;98840.31;1781637;78;21010;-61
2022/01/22 11:07:11;;;;;;;2.60;1.95;;;;;;;10.06;46.35;98841.31;1796312;78;20986;-61
2022/01/22 11:09:37;;;;;;;2.70;2.08;;;;;;;10.06;46.34;98840.80;1776604;78;21029;-59
2022/01/22 11:12:05;;;;;;;2.55;2.02;;;;;;;10.06;46.33;98848.76;1797515;78;21169;-64
2022/01/22 11:14:36;;;;;;;2.50;1.80;;;;;;;10.06;46.34;98843.45;1801707;78;21048;-61
2022/01/22 11:17:03;;;;;;;3.00;2.15;;;;;;;10.05;46.35;98845.80;1800604;78;20994;-60
2022/01/22 11:19:32;;;;;;;2.87;2.12;;;;;;;10.03;46.36;98852.62;1814612;78;21505;-60
2022/01/22 11:22:12;;;;;;;2.15;1.70;;;;;;;10.03;46.37;98851.80;1810248;78;21076;-59
2022/01/22 11:24:47;;;;;;;3.20;2.35;;;;;;;10.01;46.37;98859.95;1812373;78;21064;-61
2022/01/22 11:27:19;;;;;;;2.83;2.00;;;;;;;9.99;46.38;98865.13;1823749;78;21010;-60
2022/01/22 11:30:09;;;;;;;2.20;1.92;;;;;;;9.97;46.44;98858.67;1816211;78;21045;-61
2022/01/22 11:32:44;;;;;;;3.20;1.95;;;;;;;9.95;46.44;98853.25;1801082;78;21029;-60
2022/01/22 11:35:12;;;;;;;3.87;2.40;;;;;;;9.95;46.47;98857.23;1801361;77;21033;-61
2022/01/22 11:37:54;;;;;;;4.22;2.00;;;;;;;9.96;46.45;98857.53;1796754;78;21900;-62
2022/01/22 11:40:24;;;;;;;3.77;2.77;;;;;;;9.95;46.48;98855.90;1793398;78;20910;-62
2022/01/22 11:45:46;;;;;;;4.58;2.10;;;;;;;9.98;46.47;98851.53;1800960;78;21025;-62
2022/01/22 11:48:24;;;;;;;4.33;2.70;;;;;;;9.99;46.47;98856.66;1824673;78;21021;-61
2022/01/22 11:51:16;;;;;;;6.42;2.55;;;;;;;9.99;46.46;98864.62;1809930;78;21973;-60
2022/01/22 11:53:55;;;;;;;4.67;2.92;;;;;;;9.99;46.47;98865.95;1810931;78;21627;-61
2022/01/22 11:56:27;;;;;;;5.90;2.90;;;;;;;9.99;46.47;98880.53;1767598;80;21573;-60
2022/01/22 11:59:03;;;;;;;4.45;2.60;;;;;;;9.97;46.50;98873.27;1819031;78;21130;-60
2022/01/22 12:01:52;;;;;;;5.90;2.85;;;;;;;9.95;46.49;98883.25;1810899;78;21020;-57
2022/01/22 12:04:40;;;;;;;4.12;2.72;;;;;;;9.94;46.50;98894.85;1820564;78;21019;-60
2022/01/22 12:07:10;;;;;;;4.30;2.20;;;;;;;9.92;46.53;98896.87;1806703;78;20986;-61
2022/01/22 12:15:20;;;;;;;3.40;2.20;;;;;;;9.87;46.58;98899.27;1804680;78;21037;-61
2022/01/22 12:18:04;;;;;;;4.03;2.50;;;;;;;9.84;46.60;98903.61;1797448;78;21140;-62
2022/01/22 12:23:13;;;;;;;3.50;2.80;;;;;;;9.81;46.63;98914.09;1798327;78;21006;-62
2022/01/22 12:25:45;;;;;;;3.52;2.58;;;;;;;9.80;46.62;98930.19;1767132;78;21517;-61
2022/01/22 12:28:13;;;;;;;3.17;2.50;;;;;;;9.78;46.61;98928.22;1813101;78;21042;-62
2022/01/22 12:30:45;;;;;;;3.75;2.22;;;;;;;9.75;46.63;98924.08;1821736;78;21082;-61
2022/01/22 12:33:16;;;;;;;5.15;2.98;;;;;;;9.75;46.62;98933.37;1804241;78;21017;-62
2022/01/22 12:35:46;;;;;;;3.62;2.20;;;;;;;9.74;46.63;98929.59;1782543;78;21017;-62
2022/01/22 12:43:53;;;;;;;3.92;2.10;;;;;;;9.69;46.63;98928.80;1796583;78;21139;-62
2022/01/22 12:46:20;;;;;;;4.53;2.20;;;;;;;9.69;46.64;98938.59;1818678;78;20994;-61
2022/01/22 12:48:48;;;;;;;3.75;2.65;;;;;;;9.66;46.67;98946.42;1816590;78;21057;-61
2022/01/22 12:51:14;;;;;;;4.70;2.52;;;;;;;9.65;46.68;98954.03;1809009;78;21065;-61
2022/01/22 12:53:46;;;;;;;4.10;2.55;;;;;;;9.64;46.67;98955.88;1801991;78;21005;-64
2022/01/22 12:56:47;;;;;;;3.85;2.42;;;;;;;9.64;46.68;98955.88;1812884;78;21109;-60
2022/01/22 12:58:44;;;;;;;3.17;2.42;;;;;;;9.63;46.69;98963.50;1779554;78;21052;-62
2022/01/22 13:01:22;;;;;;;3.80;2.75;;;;;;;9.63;46.68;98964.82;1807951;78;20998;-62
2022/01/22 13:03:52;;;;;;;3.17;2.22;;;;;;;9.62;46.69;98965.84;1818603;77;21076;-61
2022/01/22 13:06:19;;;;;;;3.30;2.17;;;;;;;9.61;46.68;98969.48;1799913;78;20986;-61
2022/01/22 13:09:00;;;;;;;3.33;2.40;;;;;;;9.60;46.70;98981.11;1764983;78;21213;-61
2022/01/22 13:11:31;;;;;;;3.12;2.27;;;;;;;9.60;46.69;98985.09;1824545;78;20990;-62
2022/01/22 13:13:58;;;;;;;2.98;2.20;;;;;;;9.59;46.70;98987.41;1783626;78;21080;-62
2022/01/22 13:16:25;;;;;;;4.12;2.60;;;;;;;9.59;46.71;98990.56;1821920;78;21085;-61
2022/01/22 13:18:58;;;;;;;3.08;2.00;;;;;;;9.54;46.72;98977.86;1794862;77;21053;-62
2022/01/22 13:21:29;;;;;;;4.35;2.58;;;;;;;9.58;46.71;98990.23;1817512;78;21094;-61
2022/01/22 13:24:08;;;;;;;3.33;2.25;;;;;;;9.57;46.71;98993.39;1824217;78;21056;-61
2022/01/22 13:29:32;;;;;;;3.50;2.33;;;;;;;9.55;46.68;98999.38;1825869;78;21755;-62
2022/01/22 13:32:20;;;;;;;3.47;2.25;;;;;;;9.54;46.70;99003.05;1801509;78;20986;-61
2022/01/22 13:40:51;;;;;;;3.45;2.45;;;;;;;9.50;46.76;99018.16;1814655;78;21567;-62
2022/01/22 13:48:49;;;;;;;3.15;2.15;;;;;;;9.44;46.80;99028.97;1804276;79;21140;-62
2022/01/22 13:51:17;;;;;;;2.62;2.00;;;;;;;9.43;46.82;99028.66;1796394;79;20990;-62
2022/01/22 13:53:46;;;;;;;4.05;2.30;;;;;;;9.41;46.83;99030.66;1811112;79;21031;-63
2022/01/22 13:56:13;;;;;;;4.65;2.30;;;;;;;9.41;46.83;99034.64;1814536;78;21609;-63